Time;durP1;ratioP1;P1;durP2;ratioP2;P2;SDS_P1;SDS_P2;PMS_P1;PMS_P2;Temp;Humidity;BMP_temperature;BMP_pressure;BME280_temperature;BME280_humidity;BME280_pressure;Samples;Min_cycle;Max_cycle;Signal;HPM_P1;HPM_P2
2023/05/25 05:16:19;;;;;;;;;;;23.40;62.80;;;;;;5053707;28;19923;-77
2023/05/25 05:18:44;;;;;;;;;;;23.40;63.30;;;;;;4998675;28;1116542;-76
2023/05/25 05:21:10;;;;;;;;;;;23.30;63.10;;;;;;5036998;28;19912;-75
2023/05/25 05:23:35;;;;;;;;;;;23.30;62.70;;;;;;5035562;28;19912;-75
2023/05/25 05:26:03;;;;;;;;;;;23.30;62.80;;;;;;5036959;28;20423;-75
2023/05/25 05:28:29;;;;;;;;;;;23.30;62.80;;;;;;5040169;28;19927;-75
2023/05/25 05:30:55;;;;;;;;;;;23.30;62.90;;;;;;5055520;28;20333;-77
2023/05/25 05:33:22;;;;;;;;;;;23.30;63.20;;;;;;5056870;28;19908;-77
2023/05/25 05:35:48;;;;;;;;;;;23.30;62.80;;;;;;5055520;28;19909;-77
2023/05/25 05:38:14;;;;;;;;;;;23.30;62.60;;;;;;5056744;28;19912;-77
2023/05/25 05:40:39;;;;;;;;;;;23.40;62.50;;;;;;5055031;28;19958;-76
2023/05/25 05:43:05;;;;;;;;;;;23.40;62.50;;;;;;5056537;28;20386;-77
2023/05/25 05:45:31;;;;;;;;;;;23.50;62.50;;;;;;5056659;28;19905;-79
2023/05/25 05:47:56;;;;;;;;;;;23.50;62.40;;;;;;5056321;28;19988;-78
2023/05/25 05:50:22;;;;;;;;;;;23.50;62.50;;;;;;5053930;28;19955;-78
2023/05/25 05:52:47;;;;;;;;;;;23.50;62.50;;;;;;5054401;28;19904;-76
2023/05/25 05:55:13;;;;;;;;;;;23.50;62.40;;;;;;5055678;28;19909;-78
2023/05/25 05:57:38;;;;;;;;;;;23.50;62.40;;;;;;5054069;28;20373;-81
2023/05/25 06:00:05;;;;;;;;;;;23.60;62.30;;;;;;5056565;28;20243;-77
2023/05/25 06:02:31;;;;;;;;;;;23.60;62.50;;;;;;5055071;28;19908;-80
2023/05/25 06:04:56;;;;;;;;;;;23.70;62.20;;;;;;5055805;28;20406;-78
2023/05/25 06:07:22;;;;;;;;;;;23.70;62.00;;;;;;5054410;28;19909;-77
2023/05/25 06:09:47;;;;;;;;;;;23.80;62.00;;;;;;5055151;28;19909;-76
2023/05/25 06:12:13;;;;;;;;;;;23.90;62.10;;;;;;5055334;28;19915;-79
2023/05/25 06:14:38;;;;;;;;;;;23.90;62.20;;;;;;5053797;28;20308;-78
2023/05/25 06:17:04;;;;;;;;;;;23.90;62.00;;;;;;5055673;28;19916;-81
2023/05/25 06:19:29;;;;;;;;;;;23.90;61.80;;;;;;5055141;28;19905;-81
2023/05/25 06:21:55;;;;;;;;;;;24.00;61.70;;;;;;5054285;28;20286;-89
2023/05/25 06:24:21;;;;;;;;;;;24.00;61.70;;;;;;5053478;28;19904;-75
2023/05/25 06:26:46;;;;;;;;;;;24.10;61.70;;;;;;5054628;28;19905;-76
2023/05/25 06:29:13;;;;;;;;;;;24.10;61.60;;;;;;5055204;28;20065;-78
2023/05/25 06:31:38;;;;;;;;;;;24.20;61.80;;;;;;5055192;28;20321;-82
2023/05/25 06:34:04;;;;;;;;;;;24.20;61.50;;;;;;5055561;28;19909;-81
2023/05/25 06:36:30;;;;;;;;;;;24.10;61.20;;;;;;5054899;28;19958;-79
2023/05/25 06:38:56;;;;;;;;;;;24.20;61.30;;;;;;5053251;28;19955;-79
2023/05/25 06:41:22;;;;;;;;;;;24.30;61.30;;;;;;5054716;28;20317;-80
2023/05/25 06:43:47;;;;;;;;;;;24.40;61.20;;;;;;5054263;28;19905;-80
2023/05/25 06:46:16;;;;;;;;;;;24.40;61.00;;;;;;5053689;28;20004;-80
2023/05/25 06:48:42;;;;;;;;;;;24.50;61.00;;;;;;5054739;28;19924;-81
2023/05/25 06:51:07;;;;;;;;;;;24.60;60.80;;;;;;5054274;28;19908;-79
2023/05/25 06:53:33;;;;;;;;;;;24.70;60.80;;;;;;5054160;28;20004;-80
2023/05/25 06:55:58;;;;;;;;;;;24.70;60.60;;;;;;5054482;28;19904;-78
2023/05/25 06:58:24;;;;;;;;;;;24.80;60.50;;;;;;5054411;28;20366;-76
2023/05/25 07:00:49;;;;;;;;;;;24.90;60.60;;;;;;5054366;28;19905;-76
2023/05/25 07:03:15;;;;;;;;;;;24.90;60.30;;;;;;5054384;28;19979;-76
2023/05/25 07:05:41;;;;;;;;;;;24.90;60.30;;;;;;5053566;28;19905;-76
2023/05/25 07:08:06;;;;;;;;;;;24.90;60.30;;;;;;5052905;28;19909;-75
2023/05/25 07:10:32;;;;;;;;;;;24.90;60.30;;;;;;5054785;28;20370;-76
2023/05/25 07:12:58;;;;;;;;;;;25.00;60.30;;;;;;5054883;28;20422;-75
2023/05/25 07:15:23;;;;;;;;;;;25.00;60.30;;;;;;5055093;28;19909;-76
2023/05/25 07:17:49;;;;;;;;;;;25.00;60.20;;;;;;5053305;28;20309;-76
2023/05/25 07:20:14;;;;;;;;;;;25.00;60.10;;;;;;5054636;28;19927;-76
2023/05/25 07:22:41;;;;;;;;;;;25.10;60.10;;;;;;5054914;28;19904;-76
2023/05/25 07:25:06;;;;;;;;;;;25.10;60.10;;;;;;5054727;28;19905;-76
2023/05/25 07:27:32;;;;;;;;;;;25.10;60.20;;;;;;5052769;28;20266;-76
2023/05/25 07:29:58;;;;;;;;;;;25.20;60.70;;;;;;5054633;28;19952;-76
2023/05/25 07:32:23;;;;;;;;;;;25.20;60.20;;;;;;5053413;28;20349;-75
2023/05/25 07:34:49;;;;;;;;;;;25.20;60.00;;;;;;5054628;28;19905;-77
2023/05/25 07:37:14;;;;;;;;;;;25.20;60.10;;;;;;5054310;28;19905;-77
2023/05/25 07:39:40;;;;;;;;;;;25.30;60.20;;;;;;5052968;28;19999;-77
2023/05/25 07:42:05;;;;;;;;;;;25.30;59.90;;;;;;5054533;28;19905;-76
2023/05/25 07:44:31;;;;;;;;;;;25.40;60.10;;;;;;5054521;28;19927;-77
2023/05/25 07:46:56;;;;;;;;;;;25.40;59.80;;;;;;5054289;28;20012;-77
2023/05/25 07:49:22;;;;;;;;;;;25.50;60.00;;;;;;5053158;28;20240;-77
2023/05/25 07:51:47;;;;;;;;;;;25.50;59.70;;;;;;5054143;28;19908;-77
2023/05/25 07:54:13;;;;;;;;;;;25.60;59.60;;;;;;5054175;28;19931;-77
2023/05/25 07:56:38;;;;;;;;;;;25.60;59.60;;;;;;5053919;28;19905;-77
2023/05/25 07:59:05;;;;;;;;;;;25.60;59.60;;;;;;5053969;28;20216;-77
2023/05/25 08:01:30;;;;;;;;;;;25.70;59.50;;;;;;5053953;28;19905;-77
2023/05/25 08:03:56;;;;;;;;;;;25.70;59.40;;;;;;5053886;28;20003;-77
2023/05/25 08:06:22;;;;;;;;;;;25.80;59.50;;;;;;5052804;28;19905;-77
2023/05/25 08:08:48;;;;;;;;;;;25.90;59.40;;;;;;5053867;28;19909;-77
2023/05/25 08:11:15;;;;;;;;;;;25.90;59.30;;;;;;5054022;28;19974;-77
2023/05/25 08:13:41;;;;;;;;;;;26.00;59.20;;;;;;5052702;28;19957;-78
2023/05/25 08:16:07;;;;;;;;;;;26.10;59.20;;;;;;5054162;28;19904;-77
2023/05/25 08:18:33;;;;;;;;;;;26.10;59.00;;;;;;5053977;28;19917;-77
2023/05/25 08:20:59;;;;;;;;;;;26.10;58.90;;;;;;5053776;28;19911;-77
2023/05/25 08:23:25;;;;;;;;;;;26.10;58.90;;;;;;5053488;28;19939;-77
2023/05/25 08:25:51;;;;;;;;;;;26.20;58.90;;;;;;5052475;28;19951;-77
2023/05/25 08:28:16;;;;;;;;;;;26.20;58.80;;;;;;5053419;28;20376;-77
2023/05/25 08:30:43;;;;;;;;;;;26.30;58.70;;;;;;5053876;28;20011;-77
2023/05/25 08:33:09;;;;;;;;;;;26.30;58.60;;;;;;5053339;28;20001;-77
2023/05/25 08:35:38;;;;;;;;;;;26.30;58.60;;;;;;5053578;28;19997;-77
2023/05/25 08:38:03;;;;;;;;;;;26.30;58.80;;;;;;5053865;28;19971;-77
2023/05/25 08:40:29;;;;;;;;;;;26.30;58.40;;;;;;5057684;28;19905;-77
2023/05/25 08:42:54;;;;;;;;;;;26.30;58.50;;;;;;5058090;28;20270;-77
2023/05/25 08:45:20;;;;;;;;;;;26.30;58.40;;;;;;5058220;28;19987;-78
2023/05/25 08:47:47;;;;;;;;;;;26.30;58.40;;;;;;5057513;28;21887;-77
2023/05/25 08:50:14;;;;;;;;;;;26.40;58.60;;;;;;5057609;28;19909;-77
2023/05/25 08:52:41;;;;;;;;;;;26.40;58.60;;;;;;5057299;28;20002;-77
2023/05/25 08:55:07;;;;;;;;;;;26.30;58.20;;;;;;5056277;28;19904;-78
2023/05/25 08:57:39;;;;;;;;;;;26.40;58.30;;;;;;5057394;28;19904;-77
2023/05/25 09:00:09;;;;;;;;;;;26.40;58.20;;;;;;5057570;28;19905;-77
2023/05/25 09:02:49;;;;;;;;;;;26.40;58.10;;;;;;5056311;28;19908;-77
2023/05/25 09:05:15;;;;;;;;;;;26.50;58.00;;;;;;5057322;28;19904;-77
2023/05/25 09:07:42;;;;;;;;;;;26.50;57.90;;;;;;5056388;28;19905;-78
2023/05/25 09:10:07;;;;;;;;;;;26.40;57.80;;;;;;5057567;28;20343;-77
2023/05/25 09:12:35;;;;;;;;;;;26.50;57.80;;;;;;5057254;28;19916;-78
2023/05/25 09:15:00;;;;;;;;;;;26.40;57.50;;;;;;5057323;28;19909;-77
2023/05/25 09:17:26;;;;;;;;;;;26.40;57.60;;;;;;5055597;28;20334;-77
2023/05/25 09:19:51;;;;;;;;;;;26.40;57.60;;;;;;5057097;28;19905;-77
2023/05/25 09:22:17;;;;;;;;;;;26.30;57.50;;;;;;5057109;28;20398;-77
2023/05/25 09:24:43;;;;;;;;;;;26.30;57.60;;;;;;5056932;28;19905;-77
2023/05/25 09:27:16;;;;;;;;;;;26.30;57.50;;;;;;5056498;28;19911;-77
2023/05/25 09:29:41;;;;;;;;;;;26.30;57.40;;;;;;5055426;28;19912;-77
2023/05/25 09:32:07;;;;;;;;;;;26.30;57.40;;;;;;5057039;28;19915;-77
2023/05/25 09:34:32;;;;;;;;;;;26.30;57.50;;;;;;5057281;28;19959;-76
2023/05/25 09:36:58;;;;;;;;;;;26.30;57.30;;;;;;5056954;28;19905;-76
2023/05/25 09:39:24;;;;;;;;;;;26.30;57.10;;;;;;5056695;28;19908;-76
2023/05/25 09:41:50;;;;;;;;;;;26.30;57.20;;;;;;5055297;28;20347;-76
2023/05/25 09:44:15;;;;;;;;;;;26.20;57.10;;;;;;5056567;28;19912;-77
2023/05/25 09:46:43;;;;;;;;;;;26.20;57.00;;;;;;5055111;28;19904;-77
2023/05/25 09:49:09;;;;;;;;;;;26.20;57.10;;;;;;5056100;28;20338;-77
2023/05/25 09:51:35;;;;;;;;;;;26.20;57.10;;;;;;5056502;28;19915;-77
2023/05/25 09:54:07;;;;;;;;;;;26.20;57.20;;;;;;5056522;28;19982;-77
2023/05/25 09:56:32;;;;;;;;;;;26.20;57.20;;;;;;5055041;28;19931;-77
2023/05/25 09:58:58;;;;;;;;;;;26.30;57.00;;;;;;5056234;28;20350;-77
2023/05/25 10:01:24;;;;;;;;;;;26.30;56.70;;;;;;5056592;28;19953;-77
2023/05/25 10:03:50;;;;;;;;;;;26.30;56.50;;;;;;5055503;28;20350;-77
2023/05/25 10:06:16;;;;;;;;;;;26.40;56.60;;;;;;5056020;28;19909;-77
2023/05/25 10:08:43;;;;;;;;;;;26.40;56.30;;;;;;5056169;28;19909;-77
2023/05/25 10:11:09;;;;;;;;;;;26.40;56.10;;;;;;5054441;28;19963;-77
2023/05/25 10:13:35;;;;;;;;;;;26.40;56.20;;;;;;5054912;28;20258;-77
2023/05/25 10:16:01;;;;;;;;;;;26.40;56.20;;;;;;5055950;28;20593;-77
2023/05/25 10:18:28;;;;;;;;;;;26.40;55.90;;;;;;5087191;28;19960;-78
2023/05/25 10:21:01;;;;;;;;;;;26.40;56.10;;;;;;5095889;28;19911;-77
2023/05/25 10:23:27;;;;;;;;;;;26.50;56.00;;;;;;5096162;28;20369;-78
2023/05/25 10:25:56;;;;;;;;;;;26.60;55.80;;;;;;5077759;28;19904;-77
2023/05/25 10:28:30;;;;;;;;;;;26.60;55.70;;;;;;5077657;28;20007;-77
2023/05/25 10:30:55;;;;;;;;;;;26.60;55.40;;;;;;5096188;28;19916;-77
2023/05/25 10:33:21;;;;;;;;;;;26.50;55.70;;;;;;5096024;28;20479;-77
2023/05/25 10:35:48;;;;;;;;;;;26.40;56.10;;;;;;5095756;28;19957;-78
2023/05/25 10:38:14;;;;;;;;;;;26.30;56.50;;;;;;5095839;28;20405;-77
2023/05/25 10:40:39;;;;;;;;;;;26.20;56.60;;;;;;5077511;28;19905;-77
2023/05/25 10:43:05;;;;;;;;;;;26.00;56.80;;;;;;5095761;28;19938;-77
2023/05/25 10:45:31;;;;;;;;;;;25.90;57.20;;;;;;5095546;28;19904;-77
2023/05/25 10:47:57;;;;;;;;;;;25.80;57.90;;;;;;5095922;28;19961;-77
2023/05/25 10:50:26;;;;;;;;;;;25.70;58.10;;;;;;5095786;28;19908;-77
2023/05/25 10:53:00;;;;;;;;;;;25.60;58.40;;;;;;5077395;28;20239;-77
2023/05/25 10:55:30;;;;;;;;;;;25.50;58.50;;;;;;5095383;28;20393;-77
2023/05/25 10:58:09;;;;;;;;;;;25.40;58.60;;;;;;5077463;28;19938;-77
2023/05/25 11:00:35;;;;;;;;;;;25.30;58.20;;;;;;5095585;28;20266;-78
2023/05/25 11:03:00;;;;;;;;;;;25.10;58.70;;;;;;5076863;28;19904;-78
2023/05/25 11:05:26;;;;;;;;;;;24.90;59.20;;;;;;5095342;28;19904;-77
2023/05/25 11:07:52;;;;;;;;;;;24.70;59.20;;;;;;5095254;28;20011;-78
2023/05/25 11:10:38;;;;;;;;;;;24.50;60.20;;;;;;5095383;28;19926;-78
2023/05/25 11:13:22;;;;;;;;;;;24.40;60.70;;;;;;5095856;28;20347;-79
2023/05/25 11:16:06;;;;;;;;;;;24.30;61.10;;;;;;5094973;28;20368;-77
2023/05/25 11:18:42;;;;;;;;;;;24.20;60.40;;;;;;5076616;28;20007;-77
2023/05/25 11:21:12;;;;;;;;;;;24.10;61.10;;;;;;5095152;28;19950;-78
2023/05/25 11:23:53;;;;;;;;;;;23.90;61.20;;;;;;5094967;28;20006;-77
2023/05/25 11:26:20;;;;;;;;;;;23.80;62.00;;;;;;5095061;28;20396;-78
2023/05/25 11:28:46;;;;;;;;;;;23.70;62.00;;;;;;5095154;28;19912;-79
2023/05/25 11:31:12;;;;;;;;;;;23.60;61.30;;;;;;5094720;28;19934;-78
2023/05/25 11:33:38;;;;;;;;;;;23.50;62.00;;;;;;5095174;28;20329;-79
2023/05/25 11:36:04;;;;;;;;;;;23.50;62.30;;;;;;5076490;28;19998;-78
2023/05/25 11:38:30;;;;;;;;;;;23.40;62.40;;;;;;5076691;28;20258;-78
2023/05/25 11:40:55;;;;;;;;;;;23.30;62.50;;;;;;5095166;28;19933;-78
2023/05/25 11:43:22;;;;;;;;;;;23.30;62.50;;;;;;5076478;28;19904;-79
2023/05/25 11:45:55;;;;;;;;;;;23.30;62.50;;;;;;5094844;28;20353;-80
2023/05/25 11:48:21;;;;;;;;;;;23.30;63.10;;;;;;5094994;28;20342;-79
2023/05/25 11:50:46;;;;;;;;;;;23.30;63.00;;;;;;5094782;28;19912;-79
2023/05/25 11:53:12;;;;;;;;;;;23.30;63.10;;;;;;5094657;28;19904;-79
2023/05/25 11:55:39;;;;;;;;;;;23.40;63.40;;;;;;5094370;28;19991;-78
2023/05/25 11:58:05;;;;;;;;;;;23.30;63.30;;;;;;5094661;28;19908;-78
2023/05/25 12:00:31;;;;;;;;;;;23.40;63.40;;;;;;5094504;28;19910;-79
2023/05/25 12:02:56;;;;;;;;;;;23.40;63.30;;;;;;5094623;28;19912;-78
2023/05/25 12:05:23;;;;;;;;;;;23.30;63.50;;;;;;5094798;28;19904;-78
2023/05/25 12:07:48;;;;;;;;;;;23.40;62.90;;;;;;5076321;28;19994;-78
2023/05/25 12:10:18;;;;;;;;;;;23.40;62.80;;;;;;5094421;28;20007;-78
2023/05/25 12:12:44;;;;;;;;;;;23.50;62.80;;;;;;5077084;28;19911;-78
2023/05/25 12:15:11;;;;;;;;;;;23.50;62.70;;;;;;5094058;28;19908;-79
2023/05/25 12:17:39;;;;;;;;;;;23.60;62.70;;;;;;5094177;28;19916;-77
2023/05/25 12:20:06;;;;;;;;;;;23.60;62.70;;;;;;5076273;28;19904;-77
2023/05/25 12:22:32;;;;;;;;;;;23.70;62.60;;;;;;5094278;28;19904;-77
2023/05/25 12:24:57;;;;;;;;;;;23.80;62.60;;;;;;5093983;28;19904;-78
2023/05/25 12:27:23;;;;;;;;;;;23.80;62.50;;;;;;5076405;28;19969;-77
2023/05/25 12:29:49;;;;;;;;;;;23.90;62.40;;;;;;5094125;28;19912;-78
2023/05/25 12:32:14;;;;;;;;;;;24.00;62.20;;;;;;5093972;28;19984;-77
2023/05/25 12:34:40;;;;;;;;;;;24.10;62.30;;;;;;5093838;28;19904;-77
2023/05/25 12:37:16;;;;;;;;;;;24.20;62.20;;;;;;5094110;28;19999;-78
2023/05/25 12:39:42;;;;;;;;;;;24.30;62.00;;;;;;5094073;28;20255;-77
2023/05/25 12:42:12;;;;;;;;;;;24.40;61.90;;;;;;5094250;28;19911;-77
2023/05/25 12:44:37;;;;;;;;;;;24.60;61.80;;;;;;5093967;28;19915;-77
2023/05/25 12:47:20;;;;;;;;;;;24.70;61.80;;;;;;5093604;28;20368;-77
2023/05/25 12:49:46;;;;;;;;;;;24.70;61.70;;;;;;5093800;28;20249;-78
2023/05/25 12:52:30;;;;;;;;;;;24.90;61.40;;;;;;5075536;28;19912;-77
2023/05/25 12:54:56;;;;;;;;;;;25.00;61.20;;;;;;5094408;28;19908;-78
2023/05/25 12:57:21;;;;;;;;;;;25.10;61.00;;;;;;5093557;28;19904;-78
2023/05/25 12:59:54;;;;;;;;;;;25.30;61.10;;;;;;5093930;28;19904;-78
2023/05/25 13:02:20;;;;;;;;;;;25.40;60.90;;;;;;5093920;28;19999;-77
2023/05/25 13:04:45;;;;;;;;;;;25.60;60.50;;;;;;5094045;28;20354;-78
2023/05/25 13:07:11;;;;;;;;;;;25.70;60.20;;;;;;5094179;28;19904;-78
2023/05/25 13:09:37;;;;;;;;;;;25.80;60.00;;;;;;5075741;28;19916;-78
2023/05/25 13:12:03;;;;;;;;;;;25.90;60.10;;;;;;5093756;28;20239;-77
2023/05/25 13:14:29;;;;;;;;;;;26.00;59.90;;;;;;5075405;28;20413;-77
2023/05/25 13:16:55;;;;;;;;;;;26.20;59.50;;;;;;5075339;28;20010;-77
2023/05/25 13:19:23;;;;;;;;;;;26.30;59.20;;;;;;5075532;28;19961;-77
2023/05/25 13:21:50;;;;;;;;;;;26.40;59.00;;;;;;5075666;28;19911;-77
2023/05/25 13:24:16;;;;;;;;;;;26.40;58.90;;;;;;5094105;28;19949;-78
2023/05/25 13:26:43;;;;;;;;;;;26.50;58.40;;;;;;5097175;28;20254;-78
2023/05/25 13:29:09;;;;;;;;;;;26.60;58.40;;;;;;5078895;28;20346;-77
2023/05/25 13:31:34;;;;;;;;;;;26.80;58.90;;;;;;5097236;28;19965;-77
2023/05/25 13:34:00;;;;;;;;;;;27.00;59.20;;;;;;5097558;28;19904;-77
2023/05/25 13:36:26;;;;;;;;;;;27.30;58.20;;;;;;5096853;28;20330;-78
2023/05/25 13:38:51;;;;;;;;;;;27.80;58.80;;;;;;5097008;28;19904;-77
2023/05/25 13:41:17;;;;;;;;;;;28.40;59.30;;;;;;5096809;28;19904;-77
2023/05/25 13:43:43;;;;;;;;;;;28.90;58.00;;;;;;5078717;28;20357;-77
2023/05/25 13:46:08;;;;;;;;;;;29.40;56.00;;;;;;5096143;28;19926;-78
2023/05/25 13:48:34;;;;;;;;;;;30.00;57.20;;;;;;5078580;28;20247;-78
2023/05/25 13:51:01;;;;;;;;;;;30.60;56.80;;;;;;5078753;28;19953;-78
2023/05/25 13:53:27;;;;;;;;;;;31.10;54.90;;;;;;5079016;28;19910;-78
2023/05/25 13:55:53;;;;;;;;;;;31.50;53.80;;;;;;5096729;28;20269;-78
2023/05/25 13:58:19;;;;;;;;;;;31.90;52.80;;;;;;5096410;28;19929;-77
2023/05/25 14:00:45;;;;;;;;;;;32.10;55.60;;;;;;5094752;28;19958;-78
2023/05/25 14:03:11;;;;;;;;;;;32.20;55.80;;;;;;5095650;28;19908;-78
2023/05/25 14:05:36;;;;;;;;;;;32.30;55.50;;;;;;5095594;28;20456;-78
2023/05/25 14:08:03;;;;;;;;;;;32.40;50.50;;;;;;5095848;28;19915;-76
2023/05/25 14:10:29;;;;;;;;;;;32.50;54.50;;;;;;5095678;28;20003;-75
2023/05/25 14:12:55;;;;;;;;;;;32.60;53.20;;;;;;5095002;28;20417;-78
2023/05/25 14:15:20;;;;;;;;;;;32.80;51.60;;;;;;5095828;28;20000;-85
2023/05/25 14:17:46;;;;;;;;;;;32.90;53.40;;;;;;5077017;28;19916;-77
2023/05/25 14:20:14;;;;;;;;;;;33.00;49.40;;;;;;5095539;28;20314;-77
2023/05/25 14:22:40;;;;;;;;;;;33.10;50.50;;;;;;5095116;28;19998;-77
2023/05/25 14:25:06;;;;;;;;;;;33.10;51.20;;;;;;5094840;28;20041;-78
2023/05/25 14:27:31;;;;;;;;;;;33.10;51.30;;;;;;5095021;28;19908;-77
2023/05/25 14:29:57;;;;;;;;;;;33.20;51.00;;;;;;5094566;28;20354;-81
2023/05/25 14:32:22;;;;;;;;;;;33.20;51.00;;;;;;5095144;28;19914;-78
2023/05/25 14:34:48;;;;;;;;;;;33.00;50.40;;;;;;5094914;28;19910;-76
2023/05/25 14:37:13;;;;;;;;;;;32.60;50.30;;;;;;5093619;28;20346;-79
2023/05/25 14:39:39;;;;;;;;;;;32.10;50.20;;;;;;5076597;28;19904;-71
2023/05/25 14:42:05;;;;;;;;;;;31.70;50.50;;;;;;5094847;28;19904;-71
2023/05/25 14:44:30;;;;;;;;;;;31.20;50.60;;;;;;5094262;28;19965;-70
2023/05/25 14:46:56;;;;;;;;;;;30.80;50.80;;;;;;5094797;28;20350;-71
2023/05/25 14:49:23;;;;;;;;;;;30.30;51.40;;;;;;5094405;28;19953;-71
2023/05/25 14:51:52;;;;;;;;;;;29.90;52.30;;;;;;5094543;28;19908;-70
2023/05/25 14:54:18;;;;;;;;;;;29.50;52.30;;;;;;5076039;28;20381;-70
2023/05/25 14:59:47;;;;;;;;;;;28.70;53.50;;;;;;5094036;28;20009;-71
2023/05/25 15:02:12;;;;;;;;;;;28.20;54.30;;;;;;5075822;28;20370;-69
2023/05/25 15:04:38;;;;;;;;;;;27.90;54.50;;;;;;5094495;28;19994;-69
2023/05/25 15:07:03;;;;;;;;;;;27.60;55.00;;;;;;5095005;28;19915;-69
2023/05/25 15:09:32;;;;;;;;;;;27.40;55.60;;;;;;5094851;28;20372;-68
2023/05/25 15:11:58;;;;;;;;;;;27.20;56.00;;;;;;5095054;28;19908;-68
2023/05/25 15:14:23;;;;;;;;;;;27.00;56.00;;;;;;5094954;28;19904;-69
2023/05/25 15:16:49;;;;;;;;;;;26.80;56.20;;;;;;5094686;28;19908;-69
2023/05/25 15:19:15;;;;;;;;;;;26.60;56.70;;;;;;5094961;28;20380;-69
2023/05/25 15:21:40;;;;;;;;;;;26.40;56.80;;;;;;5094979;28;19904;-69
2023/05/25 15:24:06;;;;;;;;;;;26.20;56.60;;;;;;5094603;28;19905;-70
2023/05/25 15:26:31;;;;;;;;;;;26.10;56.70;;;;;;5094725;28;19904;-69
2023/05/25 15:28:57;;;;;;;;;;;25.90;57.60;;;;;;5094431;28;19957;-69
2023/05/25 15:31:23;;;;;;;;;;;25.80;57.60;;;;;;5094633;28;19953;-68
2023/05/25 15:33:49;;;;;;;;;;;25.70;58.00;;;;;;5076519;28;19904;-68
2023/05/25 15:36:15;;;;;;;;;;;25.50;57.90;;;;;;5076395;28;19908;-68
2023/05/25 15:38:42;;;;;;;;;;;25.30;58.00;;;;;;5094331;28;19911;-69
2023/05/25 15:41:07;;;;;;;;;;;25.20;58.40;;;;;;5094661;28;19904;-69
2023/05/25 15:43:33;;;;;;;;;;;25.10;58.50;;;;;;5094440;28;19908;-68
2023/05/25 15:45:58;;;;;;;;;;;25.10;59.00;;;;;;5094667;28;19904;-69
2023/05/25 15:48:24;;;;;;;;;;;25.10;59.10;;;;;;5094151;28;19911;-69
2023/05/25 15:50:50;;;;;;;;;;;25.10;58.60;;;;;;5094256;28;19912;-69
2023/05/25 15:53:15;;;;;;;;;;;25.10;58.90;;;;;;5094076;28;19910;-69
2023/05/25 15:55:41;;;;;;;;;;;25.10;58.90;;;;;;5094391;28;19907;-68
2023/05/25 15:58:06;;;;;;;;;;;25.10;59.00;;;;;;5094161;28;19997;-69
2023/05/25 16:00:32;;;;;;;;;;;25.00;59.70;;;;;;5075686;28;20312;-68
2023/05/25 16:02:57;;;;;;;;;;;25.00;60.00;;;;;;5094202;28;19915;-69
2023/05/25 16:05:23;;;;;;;;;;;24.90;59.00;;;;;;5093797;28;19904;-68
2023/05/25 16:07:48;;;;;;;;;;;24.90;59.40;;;;;;5093910;28;19989;-68
2023/05/25 16:10:14;;;;;;;;;;;24.80;59.90;;;;;;5075920;28;19916;-69
2023/05/25 16:12:39;;;;;;;;;;;24.80;59.40;;;;;;5093992;28;19904;-69
2023/05/25 16:15:05;;;;;;;;;;;24.70;60.00;;;;;;5094033;28;19904;-68
2023/05/25 16:17:31;;;;;;;;;;;24.70;59.70;;;;;;5094006;28;19923;-68
2023/05/25 16:19:56;;;;;;;;;;;24.70;59.50;;;;;;5093920;28;19913;-69
2023/05/25 16:22:22;;;;;;;;;;;24.70;60.10;;;;;;5093713;28;20266;-69
2023/05/25 16:24:47;;;;;;;;;;;24.80;59.80;;;;;;5093926;28;20273;-68
2023/05/25 16:27:13;;;;;;;;;;;24.90;59.70;;;;;;5076218;28;20334;-68
2023/05/25 16:29:38;;;;;;;;;;;25.00;59.30;;;;;;5093727;28;19916;-69
2023/05/25 16:32:05;;;;;;;;;;;25.00;59.20;;;;;;5093754;28;19912;-69
2023/05/25 16:34:30;;;;;;;;;;;25.10;59.00;;;;;;5094100;28;19911;-69
2023/05/25 16:36:56;;;;;;;;;;;25.10;59.00;;;;;;5093266;28;19904;-68
2023/05/25 16:39:22;;;;;;;;;;;25.10;58.80;;;;;;5093370;28;20373;-69
2023/05/25 16:41:47;;;;;;;;;;;25.20;58.70;;;;;;5075760;28;19904;-68
2023/05/25 16:44:14;;;;;;;;;;;25.20;58.60;;;;;;5075144;28;20042;-69
2023/05/25 16:46:39;;;;;;;;;;;25.20;58.60;;;;;;5093215;28;19903;-69
2023/05/25 16:49:06;;;;;;;;;;;25.30;58.60;;;;;;5093515;28;20109;-69
2023/05/25 16:51:31;;;;;;;;;;;25.40;58.50;;;;;;5093436;28;19908;-69
2023/05/25 16:53:57;;;;;;;;;;;25.50;58.50;;;;;;5093328;28;19908;-69
2023/05/25 16:56:23;;;;;;;;;;;25.60;58.20;;;;;;5093668;28;19904;-68
2023/05/25 16:58:51;;;;;;;;;;;25.70;58.00;;;;;;5075714;28;19952;-68
2023/05/25 17:01:17;;;;;;;;;;;25.80;57.90;;;;;;5097240;28;19950;-68
2023/05/25 17:03:42;;;;;;;;;;;25.90;57.70;;;;;;5097611;28;19947;-68
2023/05/25 17:06:08;;;;;;;;;;;26.00;57.60;;;;;;5097403;28;19911;-68
2023/05/25 17:08:35;;;;;;;;;;;26.00;57.50;;;;;;5097502;28;20350;-68
2023/05/25 17:11:00;;;;;;;;;;;26.00;57.40;;;;;;5097607;28;19908;-68
2023/05/25 17:13:26;;;;;;;;;;;26.00;57.40;;;;;;5097207;28;20196;-68
2023/05/25 17:15:51;;;;;;;;;;;25.90;57.30;;;;;;5078681;28;19915;-69
2023/05/25 17:18:17;;;;;;;;;;;25.80;57.40;;;;;;5078806;28;19927;-68
2023/05/25 17:20:42;;;;;;;;;;;25.70;57.50;;;;;;5096624;28;20266;-68
2023/05/25 17:23:08;;;;;;;;;;;25.60;57.60;;;;;;5096983;28;20385;-70
2023/05/25 17:25:33;;;;;;;;;;;25.50;57.60;;;;;;5097119;28;19961;-69
2023/05/25 17:27:59;;;;;;;;;;;25.50;57.70;;;;;;5096882;28;19953;-68
2023/05/25 17:30:25;;;;;;;;;;;25.40;57.70;;;;;;5096868;28;19955;-68
2023/05/25 17:32:50;;;;;;;;;;;25.30;57.80;;;;;;5078783;28;20304;-68
2023/05/25 17:35:16;;;;;;;;;;;25.20;57.80;;;;;;5096602;28;20013;-68
2023/05/25 17:37:41;;;;;;;;;;;25.20;57.90;;;;;;5096911;28;19931;-68
2023/05/25 17:40:07;;;;;;;;;;;25.10;57.90;;;;;;5096725;28;20281;-71
2023/05/25 17:42:33;;;;;;;;;;;25.00;58.10;;;;;;5096638;28;19904;-69
2023/05/25 17:44:58;;;;;;;;;;;24.90;58.10;;;;;;5096678;28;19908;-68
2023/05/25 17:47:25;;;;;;;;;;;24.90;58.20;;;;;;5096485;28;19994;-68
2023/05/25 17:49:50;;;;;;;;;;;24.80;58.50;;;;;;5078160;28;19908;-69
2023/05/25 17:52:16;;;;;;;;;;;24.70;58.40;;;;;;5096447;28;19961;-69
2023/05/25 17:54:41;;;;;;;;;;;24.60;58.50;;;;;;5096675;28;19927;-68
2023/05/25 17:57:07;;;;;;;;;;;24.60;58.70;;;;;;5078393;28;20277;-69
2023/05/25 17:59:32;;;;;;;;;;;24.60;58.80;;;;;;5096427;28;19964;-69
2023/05/25 18:01:58;;;;;;;;;;;24.50;58.80;;;;;;5096197;28;19904;-69
2023/05/25 18:04:23;;;;;;;;;;;24.40;59.00;;;;;;5077715;28;20307;-69
2023/05/25 18:06:50;;;;;;;;;;;24.40;59.00;;;;;;5095923;28;20247;-69
2023/05/25 18:09:19;;;;;;;;;;;24.40;59.10;;;;;;5096353;28;19933;-69
2023/05/25 18:11:45;;;;;;;;;;;24.30;59.20;;;;;;5095700;28;19919;-69
2023/05/25 18:14:11;;;;;;;;;;;24.30;59.30;;;;;;5096296;28;19908;-70
2023/05/25 18:16:38;;;;;;;;;;;24.30;59.30;;;;;;5095928;28;19912;-69
2023/05/25 18:19:08;;;;;;;;;;;24.20;59.40;;;;;;5095817;28;19961;-69
2023/05/25 18:21:35;;;;;;;;;;;24.20;59.30;;;;;;5096183;28;19904;-69
2023/05/25 18:24:01;;;;;;;;;;;24.20;59.40;;;;;;5078126;28;19904;-69
2023/05/25 18:26:27;;;;;;;;;;;24.20;59.40;;;;;;5095973;28;20437;-69
2023/05/25 18:28:52;;;;;;;;;;;24.20;59.40;;;;;;5095862;28;19916;-68
2023/05/25 18:31:18;;;;;;;;;;;24.20;59.50;;;;;;5095743;28;20328;-68
2023/05/25 18:33:43;;;;;;;;;;;24.20;59.60;;;;;;5095574;28;19908;-68
2023/05/25 18:36:09;;;;;;;;;;;24.10;59.50;;;;;;5095931;28;19947;-68
2023/05/25 18:38:34;;;;;;;;;;;24.10;59.60;;;;;;5095980;28;19912;-68
2023/05/25 18:41:00;;;;;;;;;;;24.10;59.70;;;;;;5077726;28;19904;-68
2023/05/25 18:43:25;;;;;;;;;;;24.00;59.60;;;;;;5095854;28;19992;-68
2023/05/25 18:45:51;;;;;;;;;;;24.00;59.60;;;;;;5095734;28;19904;-70
2023/05/25 18:48:17;;;;;;;;;;;24.00;59.70;;;;;;5095567;28;19915;-68
2023/05/25 18:50:42;;;;;;;;;;;24.00;59.60;;;;;;5096030;28;19915;-68
2023/05/25 18:53:09;;;;;;;;;;;24.00;59.80;;;;;;5077697;28;19911;-68
2023/05/25 18:55:35;;;;;;;;;;;24.00;59.90;;;;;;5095506;28;20262;-68
2023/05/25 18:58:01;;;;;;;;;;;24.00;60.00;;;;;;5095447;28;20371;-68
2023/05/25 19:00:26;;;;;;;;;;;23.90;59.90;;;;;;5095282;28;19981;-68
2023/05/25 19:02:52;;;;;;;;;;;23.90;59.90;;;;;;5095150;28;19904;-69
2023/05/25 19:05:18;;;;;;;;;;;23.90;59.90;;;;;;5077604;28;20273;-69
2023/05/25 19:07:44;;;;;;;;;;;23.90;59.80;;;;;;5095529;28;19914;-69
2023/05/25 19:10:09;;;;;;;;;;;23.90;59.80;;;;;;5095104;28;19908;-69
2023/05/25 19:12:35;;;;;;;;;;;23.90;59.70;;;;;;5094940;28;19908;-69
2023/05/25 19:15:01;;;;;;;;;;;23.90;59.70;;;;;;5076875;28;20330;-69
2023/05/25 19:17:27;;;;;;;;;;;23.90;59.70;;;;;;5073377;28;19916;-69
2023/05/25 19:19:53;;;;;;;;;;;23.90;59.60;;;;;;5091109;28;19987;-69
2023/05/25 19:22:19;;;;;;;;;;;23.80;59.40;;;;;;5094301;28;19911;-68
2023/05/25 19:24:45;;;;;;;;;;;23.80;59.40;;;;;;5095194;28;19904;-69
2023/05/25 19:27:10;;;;;;;;;;;23.80;59.50;;;;;;5095153;28;19904;-69
2023/05/25 19:29:36;;;;;;;;;;;23.80;59.70;;;;;;5094882;28;19912;-69